Slotergracht — PDBP — position and weather

sailwx.info

Track history (hours):
 
Tides and Currents Weather Stations Pressure Air Temp Water Temp Dewpoint Dewpoint Depression Visibility Wind Speed Wind Dir Waves Ship Positions

Slotergracht

Last reported at 2016-Sep-30 17:31 UTC. Time now 2016-Oct-01 10:26 UTC.
Position N 49°52' W 004°34'.

Length 168 m; beam 25 m.

Type: Cargo ship. MMSI: 246456000.

Date/timePositionNaut miles runAvg speedWind from/ knotsBaromVisibWave heightAir tempDewpointWater temp
2016-Sep-30 17:31N 49°52' W 004°34'2015.2
2016-Sep-30 16:13N 49°55' W 004°04'2716.0
2016-Sep-30 14:33N 49°57' W 003°23'1817.8
2016-Sep-30 13:33N 49°60' W 002°56'11216.0
2016-Sep-30 06:33N 50°29' W 000°07'5217.2
2016-Sep-30 03:31N 50°53' E 001°07'1717.3
2016-Sep-30 02:33N 51°04' E 001°26'4515.1
2016-Sep-29 23:33N 51°38' E 002°14'11816.2
2016-Sep-29 16:16N 53°08' E 004°19'3913.9
2016-Sep-29 13:29N 53°44' E 004°44'31112.5
2016-Sep-28 12:33N 57°41' E 010°41'2 0.4
2016-Sep-28 08:30N 57°40' E 010°38'1 0.1
2016-Sep-28 02:32N 57°40' E 010°39'1313.8
2016-Sep-28 01:34N 57°35' E 011°02'3215.9
2016-Sep-27 23:34N 57°10' E 011°38'6816.0
2016-Sep-27 19:19N 56°05' E 011°08'7315.4
2016-Sep-27 14:34N 54°52' E 010°50'1414.0
2016-Sep-27 13:34N 54°38' E 010°54'4615.4
2016-Sep-27 10:34N 54°29' E 012°12'22716.2
2016-Sep-26 20:34N 54°52' E 018°42'1616.2
2016-Sep-26 19:33N 54°37' E 018°56'15 3.6
2016-Sep-26 15:31N 54°32' E 018°32'0 0.0
2016-Sep-26 13:31N 54°32' E 018°32'0 0.0
2016-Sep-26 11:31N 54°32' E 018°32'0 0.0
2016-Sep-26 08:31N 54°32' E 018°32'0 0.0
2016-Sep-26 02:31N 54°32' E 018°32'0 0.0
2016-Sep-26 01:31N 54°32' E 018°32'0 0.0
2016-Sep-26 00:31N 54°32' E 018°32'0 0.0
2016-Sep-25 21:31N 54°32' E 018°32'0 0.0
2016-Sep-25 17:31N 54°32' E 018°32'0 0.0
2016-Sep-25 16:31N 54°32' E 018°32'0 0.0
2016-Sep-25 15:31N 54°32' E 018°32'5 5.1
2016-Sep-25 14:33N 54°32' E 018°40'2512.5
2016-Sep-25 12:33N 54°55' E 018°60'1514.6
2016-Sep-25 11:33N 55°09' E 019°03'1514.5
2016-Sep-25 10:33N 55°24' E 019°06'1414.5
2016-Sep-25 09:33N 55°38' E 019°10'  
2016-Sep-20 17:33N 59°49' E 022°57'  
Track history (hours):
 
Tides and Currents Weather Stations Pressure Air Temp Water Temp Dewpoint Dewpoint Depression Visibility Wind Speed Wind Dir Waves Ship Positions

Slotergracht

Last reported at 2016-Sep-30 17:31 UTC. Time now 2016-Oct-01 10:26 UTC.
Position N 49°52' W 004°34'.

Length 168 m; beam 25 m.

Type: Cargo ship. MMSI: 246456000.

Date/timePositionNaut miles runAvg speedWind from/ knotsBaromVisibWave heightAir tempDewpointWater temp
2016-Sep-30 17:31N 49°52' W 004°34'2015.2
2016-Sep-30 16:13N 49°55' W 004°04'2716.0
2016-Sep-30 14:33N 49°57' W 003°23'1817.8
2016-Sep-30 13:33N 49°60' W 002°56'11216.0
2016-Sep-30 06:33N 50°29' W 000°07'5217.2
2016-Sep-30 03:31N 50°53' E 001°07'1717.3
2016-Sep-30 02:33N 51°04' E 001°26'4515.1
2016-Sep-29 23:33N 51°38' E 002°14'11816.2
2016-Sep-29 16:16N 53°08' E 004°19'3913.9
2016-Sep-29 13:29N 53°44' E 004°44'31112.5
2016-Sep-28 12:33N 57°41' E 010°41'2 0.4
2016-Sep-28 08:30N 57°40' E 010°38'1 0.1
2016-Sep-28 02:32N 57°40' E 010°39'1313.8
2016-Sep-28 01:34N 57°35' E 011°02'3215.9
2016-Sep-27 23:34N 57°10' E 011°38'6816.0
2016-Sep-27 19:19N 56°05' E 011°08'7315.4
2016-Sep-27 14:34N 54°52' E 010°50'1414.0
2016-Sep-27 13:34N 54°38' E 010°54'4615.4
2016-Sep-27 10:34N 54°29' E 012°12'22716.2
2016-Sep-26 20:34N 54°52' E 018°42'1616.2
2016-Sep-26 19:33N 54°37' E 018°56'15 3.6
2016-Sep-26 15:31N 54°32' E 018°32'0 0.0
2016-Sep-26 13:31N 54°32' E 018°32'0 0.0
2016-Sep-26 11:31N 54°32' E 018°32'0 0.0
2016-Sep-26 08:31N 54°32' E 018°32'0 0.0
2016-Sep-26 02:31N 54°32' E 018°32'0 0.0
2016-Sep-26 01:31N 54°32' E 018°32'0 0.0
2016-Sep-26 00:31N 54°32' E 018°32'0 0.0
2016-Sep-25 21:31N 54°32' E 018°32'0 0.0
2016-Sep-25 17:31N 54°32' E 018°32'0 0.0
2016-Sep-25 16:31N 54°32' E 018°32'0 0.0
2016-Sep-25 15:31N 54°32' E 018°32'5 5.1
2016-Sep-25 14:33N 54°32' E 018°40'2512.5
2016-Sep-25 12:33N 54°55' E 018°60'1514.6
2016-Sep-25 11:33N 55°09' E 019°03'1514.5
2016-Sep-25 10:33N 55°24' E 019°06'1414.5
2016-Sep-25 09:33N 55°38' E 019°10'  
2016-Sep-20 17:33N 59°49' E 022°57'  

Dump ship's entire track history